Terminal Aerodrome Forecast
Issued by NWS Detroit/Pontiac, MI

Home | Current Version | Previous Version | Text Only | Print | Product List | Glossary On
Versions: 1 2 3 4 5 6 7 8 9 10 11 12 13 14 15 16 17 18 19 20 21 22 23 24 25 26 27 28
614
FTUS43 KDTX 122045 AAB
TAFDTW
TAF AMD
KDTW 122045Z 1221/1324 30018G28KT P6SM -SHSN SCT028 OVC035
      TEMPO 1221/1224 2SM -SHSN BKN028 OVC035
     FM130200 32015G25KT P6SM SCT020 BKN045
     FM130700 31012KT P6SM SCT045
     FM131500 30012G22KT P6SM BKN040=

USA.gov is the U.S. government's official web portal to all federal, state and local government web resources and services.